Time;durP1;ratioP1;P1;durP2;ratioP2;P2;SDS_P1;SDS_P2;PMS_P1;PMS_P2;Temp;Humidity;BMP_temperature;BMP_pressure;BME280_temperature;BME280_humidity;BME280_pressure;Samples;Min_cycle;Max_cycle;Signal;HPM_P1;HPM_P2
2022/08/05 00:00:11;;;;;;;3.33;1.10;;;;;;;;;;4952602;28;20065;-66
2022/08/05 00:02:38;;;;;;;3.53;1.10;;;;;;;;;;4956313;28;20050;-65
2022/08/05 00:05:05;;;;;;;3.22;1.13;;;;;;;;;;4990938;28;20042;-65
2022/08/05 00:07:31;;;;;;;6.30;1.23;;;;;;;;;;4969553;28;20054;-65
2022/08/05 00:09:59;;;;;;;3.90;1.20;;;;;;;;;;4967151;28;20059;-64
2022/08/05 00:12:27;;;;;;;3.00;1.30;;;;;;;;;;4973655;28;20066;-64
2022/08/05 00:14:53;;;;;;;6.05;1.45;;;;;;;;;;4965334;28;20057;-66
2022/08/05 00:17:20;;;;;;;3.63;1.23;;;;;;;;;;4986780;28;20058;-63
2022/08/05 00:19:46;;;;;;;2.47;1.00;;;;;;;;;;4965442;28;20061;-66
2022/08/05 00:22:13;;;;;;;7.43;1.63;;;;;;;;;;4972706;28;20066;-66
2022/08/05 00:24:41;;;;;;;6.43;1.63;;;;;;;;;;4970838;28;20054;-65
2022/08/05 00:27:07;;;;;;;3.47;1.10;;;;;;;;;;4975995;28;20129;-65
2022/08/05 00:29:35;;;;;;;4.50;1.17;;;;;;;;;;4985749;28;20067;-65
2022/08/05 00:32:03;;;;;;;2.45;1.00;;;;;;;;;;4975490;28;20050;-64
2022/08/05 00:34:32;;;;;;;4.57;1.37;;;;;;;;;;4986004;28;20074;-65
2022/08/05 00:36:59;;;;;;;3.38;1.10;;;;;;;;;;4975991;28;20054;-65
2022/08/05 00:39:25;;;;;;;3.63;1.10;;;;;;;;;;4991516;28;20046;-64
2022/08/05 00:41:54;;;;;;;3.50;1.17;;;;;;;;;;4969536;28;20050;-65
2022/08/05 00:44:21;;;;;;;2.13;1.02;;;;;;;;;;4974273;28;20058;-65
2022/08/05 00:46:49;;;;;;;1.58;0.98;;;;;;;;;;4968944;28;20081;-65
2022/08/05 00:49:18;;;;;;;3.55;1.48;;;;;;;;;;4973816;28;20062;-65
2022/08/05 00:51:44;;;;;;;3.05;1.20;;;;;;;;;;4969229;28;20210;-64
2022/08/05 00:54:11;;;;;;;2.42;0.90;;;;;;;;;;4974953;28;20062;-64
2022/08/05 00:56:38;;;;;;;2.40;1.00;;;;;;;;;;4969181;28;20105;-65
2022/08/05 00:59:05;;;;;;;6.47;1.20;;;;;;;;;;4990852;28;20066;-64
2022/08/05 01:01:32;;;;;;;2.97;1.23;;;;;;;;;;4969752;28;20081;-64
2022/08/05 01:04:01;;;;;;;3.25;1.10;;;;;;;;;;4974147;28;20051;-65
2022/08/05 01:06:27;;;;;;;6.85;1.52;;;;;;;;;;4969933;28;20049;-64
2022/08/05 01:08:54;;;;;;;1.95;0.98;;;;;;;;;;4974450;28;20050;-65
2022/08/05 01:11:22;;;;;;;2.90;1.27;;;;;;;;;;4968801;28;20050;-64
2022/08/05 01:13:55;;;;;;;1.63;0.93;;;;;;;;;;4974193;28;20046;-65
2022/08/05 01:16:26;;;;;;;4.22;1.63;;;;;;;;;;4985180;28;20663;-66
2022/08/05 01:18:56;;;;;;;5.10;1.75;;;;;;;;;;4974015;28;20050;-64
2022/08/05 01:21:36;;;;;;;5.20;1.25;;;;;;;;;;4986223;28;20050;-65
2022/08/05 01:24:09;;;;;;;4.43;1.27;;;;;;;;;;4974576;28;20070;-66
2022/08/05 01:26:44;;;;;;;6.43;1.55;;;;;;;;;;4969662;28;20058;-64
2022/08/05 01:29:15;;;;;;;4.50;1.30;;;;;;;;;;4990086;28;20054;-63
2022/08/05 01:31:45;;;;;;;3.53;1.38;;;;;;;;;;4967942;28;20050;-61
2022/08/05 01:34:13;;;;;;;4.40;1.25;;;;;;;;;;4972659;28;20058;-62
2022/08/05 01:36:41;;;;;;;5.68;1.30;;;;;;;;;;4974262;28;20058;-64
2022/08/05 01:39:08;;;;;;;4.60;1.00;;;;;;;;;;4968098;28;20056;-64
2022/08/05 01:41:35;;;;;;;3.95;1.15;;;;;;;;;;4973309;28;20050;-65
2022/08/05 01:44:06;;;;;;;2.72;0.93;;;;;;;;;;4967767;28;20100;-64
2022/08/05 01:46:35;;;;;;;2.75;1.02;;;;;;;;;;4973832;28;20046;-65
2022/08/05 01:49:03;;;;;;;3.33;1.17;;;;;;;;;;4968406;28;20054;-61
2022/08/05 01:51:31;;;;;;;1.60;1.00;;;;;;;;;;4973384;28;20054;-65
2022/08/05 01:53:59;;;;;;;4.25;1.52;;;;;;;;;;4968962;28;20078;-64
2022/08/05 01:56:28;;;;;;;6.53;1.60;;;;;;;;;;4974491;28;20061;-64
2022/08/05 01:58:56;;;;;;;5.95;1.90;;;;;;;;;;4984828;28;20053;-65
2022/08/05 02:01:23;;;;;;;3.08;1.08;;;;;;;;;;4971907;28;20056;-65
2022/08/05 02:03:52;;;;;;;5.30;1.50;;;;;;;;;;4967946;28;20109;-61
2022/08/05 02:06:18;;;;;;;3.88;1.17;;;;;;;;;;4989887;28;20050;-65
2022/08/05 02:08:45;;;;;;;2.03;0.90;;;;;;;;;;4960656;28;20101;-65
2022/08/05 02:11:13;;;;;;;4.22;1.08;;;;;;;;;;4990306;28;20066;-60
2022/08/05 02:13:46;;;;;;;4.25;1.30;;;;;;;;;;4980225;28;20046;-65
2022/08/05 02:16:16;;;;;;;2.75;1.30;;;;;;;;;;4970583;28;20051;-63
2022/08/05 02:18:45;;;;;;;1.65;0.80;;;;;;;;;;4948750;28;20061;-61
2022/08/05 02:21:15;;;;;;;4.93;1.20;;;;;;;;;;4954167;28;20059;-65
2022/08/05 02:23:43;;;;;;;1.88;1.05;;;;;;;;;;4949015;28;20105;-62
2022/08/05 02:26:11;;;;;;;2.33;1.17;;;;;;;;;;4953678;28;20054;-63
2022/08/05 02:28:41;;;;;;;2.67;1.03;;;;;;;;;;4952453;28;20077;-64
2022/08/05 02:31:08;;;;;;;1.58;0.80;;;;;;;;;;4967166;28;20054;-61
2022/08/05 02:33:36;;;;;;;2.40;0.93;;;;;;;;;;4973121;28;20085;-59
2022/08/05 02:36:05;;;;;;;1.88;0.90;;;;;;;;;;4950463;28;20062;-58
2022/08/05 02:38:34;;;;;;;4.50;1.15;;;;;;;;;;4953560;28;20078;-59
2022/08/05 02:41:01;;;;;;;4.07;1.08;;;;;;;;;;4948178;28;20050;-58
2022/08/05 02:43:28;;;;;;;5.20;1.77;;;;;;;;;;4953392;28;20089;-59
2022/08/05 02:45:57;;;;;;;2.55;1.10;;;;;;;;;;4947346;28;20317;-62
2022/08/05 02:48:25;;;;;;;2.28;1.20;;;;;;;;;;4953632;28;20049;-61
2022/08/05 02:50:52;;;;;;;2.42;1.20;;;;;;;;;;4948635;28;20141;-61
2022/08/05 02:53:20;;;;;;;2.97;0.95;;;;;;;;;;4953079;28;20055;-61
2022/08/05 02:55:51;;;;;;;4.30;0.98;;;;;;;;;;4948402;28;20057;-60
2022/08/05 02:58:18;;;;;;;3.25;1.10;;;;;;;;;;4952853;28;20149;-60
2022/08/05 03:00:45;;;;;;;3.60;1.17;;;;;;;;;;4948377;28;20070;-62
2022/08/05 03:03:13;;;;;;;3.08;1.08;;;;;;;;;;4965337;28;20058;-59
2022/08/05 03:05:43;;;;;;;2.22;0.90;;;;;;;;;;4966939;28;20049;-60
2022/08/05 03:08:10;;;;;;;4.13;1.10;;;;;;;;;;4989011;28;20171;-62
2022/08/05 03:10:37;;;;;;;3.53;1.20;;;;;;;;;;4966858;28;20062;-60
2022/08/05 03:13:11;;;;;;;3.63;1.17;;;;;;;;;;4971950;28;20101;-61
2022/08/05 03:15:41;;;;;;;1.92;1.00;;;;;;;;;;4968212;28;20046;-61
2022/08/05 03:18:08;;;;;;;2.15;1.00;;;;;;;;;;4968794;28;20117;-62
2022/08/05 03:20:35;;;;;;;2.15;0.88;;;;;;;;;;4969262;28;20105;-62
2022/08/05 03:23:02;;;;;;;5.25;1.35;;;;;;;;;;4966571;28;20054;-62
2022/08/05 03:25:29;;;;;;;3.33;0.98;;;;;;;;;;4972118;28;20085;-62
2022/08/05 03:27:55;;;;;;;2.83;0.95;;;;;;;;;;4966243;28;20057;-62
2022/08/05 03:30:25;;;;;;;2.20;1.10;;;;;;;;;;4972493;28;20054;-62
2022/08/05 03:32:52;;;;;;;2.70;0.95;;;;;;;;;;4968609;28;20047;-63
2022/08/05 03:35:20;;;;;;;2.60;0.80;;;;;;;;;;4973270;28;20054;-63
2022/08/05 03:37:46;;;;;;;3.00;0.90;;;;;;;;;;4982351;28;20051;-62
2022/08/05 03:40:13;;;;;;;3.80;1.10;;;;;;;;;;4971136;28;20111;-62
2022/08/05 03:42:40;;;;;;;4.40;1.20;;;;;;;;;;4966711;28;20054;-61
2022/08/05 03:45:08;;;;;;;4.18;1.58;;;;;;;;;;4971122;28;20153;-61
2022/08/05 03:47:36;;;;;;;3.85;1.20;;;;;;;;;;4966176;28;20046;-62
2022/08/05 03:50:02;;;;;;;5.28;1.17;;;;;;;;;;4970923;28;20058;-63
2022/08/05 03:52:31;;;;;;;2.22;1.00;;;;;;;;;;4982110;28;20050;-60
2022/08/05 03:55:01;;;;;;;6.00;1.65;;;;;;;;;;4971727;28;20077;-61
2022/08/05 03:57:28;;;;;;;3.25;1.13;;;;;;;;;;4965662;28;20054;-63
2022/08/05 03:59:56;;;;;;;1.58;0.90;;;;;;;;;;4971569;28;20078;-62
2022/08/05 04:02:24;;;;;;;6.28;1.60;;;;;;;;;;4979863;28;20049;-59
2022/08/05 04:04:54;;;;;;;3.92;1.35;;;;;;;;;;4949643;28;20050;-62
2022/08/05 04:07:22;;;;;;;3.63;1.45;;;;;;;;;;4970595;28;20046;-62
2022/08/05 04:09:48;;;;;;;4.63;1.02;;;;;;;;;;4963393;28;20054;-64
2022/08/05 04:12:15;;;;;;;4.45;1.00;;;;;;;;;;4971329;28;20061;-63
2022/08/05 04:14:43;;;;;;;2.45;1.00;;;;;;;;;;4964983;28;20062;-65
2022/08/05 04:17:10;;;;;;;2.00;1.00;;;;;;;;;;4970727;28;20268;-65
2022/08/05 04:19:42;;;;;;;2.65;1.02;;;;;;;;;;4964301;28;20120;-63
2022/08/05 04:22:10;;;;;;;2.22;1.02;;;;;;;;;;4986876;28;20081;-65
2022/08/05 04:24:37;;;;;;;2.45;1.00;;;;;;;;;;4967487;28;20050;-65
2022/08/05 04:27:03;;;;;;;4.43;1.27;;;;;;;;;;4968465;28;20058;-63
2022/08/05 04:29:30;;;;;;;3.88;1.05;;;;;;;;;;4987064;28;20047;-64
2022/08/05 04:31:57;;;;;;;5.22;1.50;;;;;;;;;;4971934;28;20046;-65
2022/08/05 04:34:25;;;;;;;2.28;1.30;;;;;;;;;;4971581;28;20054;-65
2022/08/05 04:36:51;;;;;;;4.65;1.17;;;;;;;;;;4982391;28;20060;-64
2022/08/05 04:39:20;;;;;;;4.88;1.50;;;;;;;;;;4971391;28;20142;-63
2022/08/05 04:41:46;;;;;;;;;;;;;;;;;;4966621;28;20081;-65
2022/08/05 04:44:13;;;;;;;3.63;0.95;;;;;;;;;;4970757;28;19934;-64
2022/08/05 04:46:40;;;;;;;1.63;1.00;;;;;;;;;;4972260;28;20145;-65
2022/08/05 04:49:06;;;;;;;4.47;1.30;;;;;;;;;;4965695;28;20073;-64
2022/08/05 04:51:33;;;;;;;2.45;1.00;;;;;;;;;;4975894;28;20047;-65
2022/08/05 04:54:00;;;;;;;4.50;1.42;;;;;;;;;;4957857;28;20149;-64
2022/08/05 04:56:28;;;;;;;4.22;1.88;;;;;;;;;;4969053;28;20134;-65
2022/08/05 04:58:55;;;;;;;4.72;1.45;;;;;;;;;;4951385;28;20140;-64
2022/08/05 05:01:21;;;;;;;4.80;1.60;;;;;;;;;;4969122;28;20101;-65
2022/08/05 05:03:48;;;;;;;3.08;1.27;;;;;;;;;;4968849;28;20051;-63
2022/08/05 05:06:15;;;;;;;2.63;1.25;;;;;;;;;;4969613;28;20049;-64
2022/08/05 05:08:41;;;;;;;4.28;1.17;;;;;;;;;;4972539;28;20050;-65
2022/08/05 05:11:08;;;;;;;2.42;1.20;;;;;;;;;;4967341;28;20118;-65
2022/08/05 05:13:44;;;;;;;2.88;1.10;;;;;;;;;;4975623;28;20058;-65
2022/08/05 05:16:11;;;;;;;3.38;1.23;;;;;;;;;;4970089;28;20058;-65
2022/08/05 05:18:39;;;;;;;4.28;1.20;;;;;;;;;;4976022;28;20058;-65
2022/08/05 05:21:06;;;;;;;1.77;0.95;;;;;;;;;;4974329;28;20089;-65
2022/08/05 05:23:34;;;;;;;2.35;1.00;;;;;;;;;;4986404;28;20151;-66
2022/08/05 05:26:01;;;;;;;6.70;1.65;;;;;;;;;;4970473;28;20062;-65
2022/08/05 05:28:27;;;;;;;3.90;1.40;;;;;;;;;;4974030;28;20058;-65
2022/08/05 05:30:55;;;;;;;4.00;1.42;;;;;;;;;;4973117;28;20064;-64
2022/08/05 05:33:22;;;;;;;2.85;1.30;;;;;;;;;;4973804;28;20042;-65
2022/08/05 05:35:49;;;;;;;7.07;1.10;;;;;;;;;;4969162;28;20054;-65
2022/08/05 05:38:16;;;;;;;5.75;1.23;;;;;;;;;;4970278;28;20077;-65
2022/08/05 05:40:43;;;;;;;2.00;0.98;;;;;;;;;;4975295;28;20054;-63
2022/08/05 05:43:10;;;;;;;2.63;1.05;;;;;;;;;;4970030;28;20089;-65
2022/08/05 05:45:37;;;;;;;5.93;1.20;;;;;;;;;;4976462;28;20062;-65
2022/08/05 05:48:07;;;;;;;2.08;1.10;;;;;;;;;;4969094;28;20306;-65
2022/08/05 05:50:34;;;;;;;4.72;1.30;;;;;;;;;;4981132;28;20062;-65
2022/08/05 05:53:01;;;;;;;3.10;0.98;;;;;;;;;;4969042;28;20113;-64
2022/08/05 05:55:27;;;;;;;2.67;1.35;;;;;;;;;;4983988;28;20058;-64
2022/08/05 05:57:54;;;;;;;4.32;1.50;;;;;;;;;;4974245;28;20051;-63
2022/08/05 06:00:21;;;;;;;1.23;0.90;;;;;;;;;;4994690;28;20061;-64
2022/08/05 06:02:48;;;;;;;4.15;1.17;;;;;;;;;;4982384;28;20054;-65
2022/08/05 06:05:17;;;;;;;4.53;1.10;;;;;;;;;;4975624;28;20070;-62
2022/08/05 06:07:44;;;;;;;2.40;1.00;;;;;;;;;;4970997;28;20058;-62
2022/08/05 06:10:12;;;;;;;1.90;1.00;;;;;;;;;;4975463;28;20057;-66
2022/08/05 06:12:38;;;;;;;3.30;1.20;;;;;;;;;;4971327;28;20154;-65
2022/08/05 06:15:06;;;;;;;1.92;1.02;;;;;;;;;;4955891;28;20047;-65
2022/08/05 06:17:33;;;;;;;3.80;1.17;;;;;;;;;;4956155;28;20054;-64
2022/08/05 06:20:00;;;;;;;2.95;1.33;;;;;;;;;;4984177;28;20061;-64
2022/08/05 06:22:29;;;;;;;4.18;1.00;;;;;;;;;;4975592;28;20065;-64
2022/08/05 06:25:06;;;;;;;4.85;1.60;;;;;;;;;;4970826;28;20050;-63
2022/08/05 06:27:33;;;;;;;1.85;1.08;;;;;;;;;;4975723;28;20081;-64
2022/08/05 06:30:00;;;;;;;2.90;1.20;;;;;;;;;;4970136;28;20054;-65
2022/08/05 06:32:26;;;;;;;2.20;1.20;;;;;;;;;;4988412;28;20125;-61
2022/08/05 06:34:53;;;;;;;2.67;1.00;;;;;;;;;;4968539;28;20050;-64
2022/08/05 06:37:21;;;;;;;6.50;1.40;;;;;;;;;;4973174;28;20054;-62
2022/08/05 06:39:49;;;;;;;3.25;1.40;;;;;;;;;;4969135;28;20046;-64
2022/08/05 06:42:15;;;;;;;3.42;1.38;;;;;;;;;;4974588;28;20059;-60
2022/08/05 06:44:43;;;;;;;2.75;1.00;;;;;;;;;;4969731;28;20050;-61
2022/08/05 06:47:10;;;;;;;5.32;1.45;;;;;;;;;;4975522;28;20109;-62
2022/08/05 06:49:37;;;;;;;9.50;1.60;;;;;;;;;;4970714;28;20050;-62
2022/08/05 06:52:03;;;;;;;3.72;1.35;;;;;;;;;;4975726;28;20062;-60
2022/08/05 06:54:39;;;;;;;4.35;1.05;;;;;;;;;;4986582;28;20054;-61
2022/08/05 06:57:07;;;;;;;3.25;1.20;;;;;;;;;;4991862;28;20146;-65
2022/08/05 06:59:34;;;;;;;2.05;1.10;;;;;;;;;;4970715;28;20057;-61
2022/08/05 07:02:00;;;;;;;3.38;1.17;;;;;;;;;;4991033;28;20054;-64
2022/08/05 07:04:30;;;;;;;7.15;1.80;;;;;;;;;;4974915;28;20058;-63
2022/08/05 07:06:57;;;;;;;5.22;1.38;;;;;;;;;;4983391;28;20046;-63
2022/08/05 07:09:23;;;;;;;2.40;1.35;;;;;;;;;;4974744;28;20160;-62
2022/08/05 07:11:51;;;;;;;3.15;1.30;;;;;;;;;;4967612;28;20062;-64
2022/08/05 07:17:04;;;;;;;3.78;1.30;;;;;;;;;;4970880;28;20058;-66
2022/08/05 07:19:30;;;;;;;4.20;1.52;;;;;;;;;;4975233;28;20129;-66
2022/08/05 07:21:57;;;;;;;3.38;1.38;;;;;;;;;;4970059;28;20046;-65
2022/08/05 07:24:24;;;;;;;3.42;1.17;;;;;;;;;;4975011;28;20058;-65
2022/08/05 07:26:51;;;;;;;3.00;0.95;;;;;;;;;;4968276;28;20058;-64
2022/08/05 07:29:19;;;;;;;4.03;1.27;;;;;;;;;;4974089;28;20062;-65
2022/08/05 07:31:46;;;;;;;6.07;0.98;;;;;;;;;;4967261;28;20066;-63
2022/08/05 07:34:13;;;;;;;7.13;1.42;;;;;;;;;;4973860;28;20132;-64
2022/08/05 07:36:39;;;;;;;3.60;1.20;;;;;;;;;;4969741;28;20137;-64
2022/08/05 07:39:08;;;;;;;4.10;1.10;;;;;;;;;;4991403;28;20060;-64
2022/08/05 07:41:35;;;;;;;4.05;1.30;;;;;;;;;;4969635;28;20115;-62
2022/08/05 07:44:02;;;;;;;4.30;1.10;;;;;;;;;;4990579;28;20050;-63
2022/08/05 07:46:31;;;;;;;6.53;1.20;;;;;;;;;;4970595;28;20046;-65
2022/08/05 07:48:59;;;;;;;2.72;1.20;;;;;;;;;;4974526;28;20123;-65
2022/08/05 07:51:25;;;;;;;3.40;1.20;;;;;;;;;;4971590;28;20145;-66
2022/08/05 07:53:55;;;;;;;2.70;1.35;;;;;;;;;;4973488;28;20054;-62
2022/08/05 07:56:22;;;;;;;3.85;1.30;;;;;;;;;;4974765;28;20069;-66
2022/08/05 07:58:50;;;;;;;2.15;1.15;;;;;;;;;;4983660;28;20056;-62
2022/08/05 08:01:17;;;;;;;2.40;1.10;;;;;;;;;;4994151;28;20046;-65
2022/08/05 08:03:47;;;;;;;1.63;1.00;;;;;;;;;;4972688;28;20054;-67
2022/08/05 08:06:17;;;;;;;5.43;0.90;;;;;;;;;;4973788;28;20057;-67
2022/08/05 08:08:44;;;;;;;2.00;1.05;;;;;;;;;;4968559;28;20070;-66
2022/08/05 08:11:11;;;;;;;2.08;1.05;;;;;;;;;;4973999;28;20050;-66
2022/08/05 08:13:38;;;;;;;2.78;1.00;;;;;;;;;;4966874;28;20050;-64
2022/08/05 08:16:08;;;;;;;2.75;1.23;;;;;;;;;;4974247;28;20078;-62
2022/08/05 08:18:36;;;;;;;4.60;1.35;;;;;;;;;;4967877;28;20054;-65
2022/08/05 08:21:05;;;;;;;2.65;1.10;;;;;;;;;;4973456;28;20050;-65
2022/08/05 08:23:32;;;;;;;2.85;1.10;;;;;;;;;;4968377;28;20070;-64
2022/08/05 08:25:58;;;;;;;2.35;1.10;;;;;;;;;;4973702;28;20051;-66
2022/08/05 08:28:25;;;;;;;2.58;1.00;;;;;;;;;;4984772;28;20050;-64
2022/08/05 08:30:51;;;;;;;2.33;1.20;;;;;;;;;;4973004;28;20116;-65
2022/08/05 08:33:18;;;;;;;1.77;0.75;;;;;;;;;;4968264;28;20050;-65
2022/08/05 08:35:46;;;;;;;2.33;0.93;;;;;;;;;;4972527;28;20046;-64
2022/08/05 08:38:15;;;;;;;3.10;1.10;;;;;;;;;;4970091;28;20050;-65
2022/08/05 08:40:42;;;;;;;3.75;1.00;;;;;;;;;;4971326;28;20054;-65
2022/08/05 08:43:12;;;;;;;1.83;0.88;;;;;;;;;;4971938;28;20062;-65
2022/08/05 08:45:41;;;;;;;1.77;0.90;;;;;;;;;;4987971;28;20086;-65
2022/08/05 08:48:08;;;;;;;3.95;1.00;;;;;;;;;;4976811;28;20062;-65
2022/08/05 08:50:36;;;;;;;4.45;0.90;;;;;;;;;;4971676;28;20399;-61
2022/08/05 08:53:05;;;;;;;4.00;0.90;;;;;;;;;;4993751;28;20058;-62
2022/08/05 08:55:35;;;;;;;3.35;0.90;;;;;;;;;;4989094;28;20077;-64
2022/08/05 08:58:02;;;;;;;3.40;0.80;;;;;;;;;;4976851;28;20050;-65
2022/08/05 09:00:29;;;;;;;2.60;0.80;;;;;;;;;;4972312;28;20050;-60
2022/08/05 09:02:56;;;;;;;2.92;0.90;;;;;;;;;;4974796;28;20054;-65
2022/08/05 09:05:23;;;;;;;0.95;0.60;;;;;;;;;;4953198;28;20065;-62
2022/08/05 09:07:50;;;;;;;1.13;0.75;;;;;;;;;;4977498;28;20042;-64
2022/08/05 09:10:17;;;;;;;1.88;0.70;;;;;;;;;;4984992;28;20056;-59
2022/08/05 09:12:45;;;;;;;1.52;0.70;;;;;;;;;;4976339;28;20051;-64
2022/08/05 09:15:13;;;;;;;1.75;0.70;;;;;;;;;;4986817;28;20073;-62
2022/08/05 09:17:40;;;;;;;5.60;0.70;;;;;;;;;;4975077;28;20050;-64
2022/08/05 09:20:08;;;;;;;1.85;0.63;;;;;;;;;;4973012;28;20057;-64
2022/08/05 09:22:53;;;;;;;3.75;0.80;;;;;;;;;;4970266;28;20058;-60
2022/08/05 09:25:27;;;;;;;0.93;0.52;;;;;;;;;;4974535;28;20077;-62
2022/08/05 09:27:55;;;;;;;0.60;0.60;;;;;;;;;;4972364;28;20051;-65
2022/08/05 09:30:21;;;;;;;2.03;0.60;;;;;;;;;;4976404;28;20046;-65
2022/08/05 09:32:48;;;;;;;2.42;0.60;;;;;;;;;;4969069;28;20062;-65
2022/08/05 09:35:16;;;;;;;1.27;0.60;;;;;;;;;;4976717;28;20069;-64
2022/08/05 09:37:49;;;;;;;1.63;0.57;;;;;;;;;;4972684;28;20065;-65
2022/08/05 09:40:35;;;;;;;4.95;0.60;;;;;;;;;;4974525;28;20302;-65
2022/08/05 09:43:05;;;;;;;2.55;0.60;;;;;;;;;;4991254;28;20153;-63
2022/08/05 09:45:46;;;;;;;0.95;0.60;;;;;;;;;;4970388;28;20133;-60
2022/08/05 09:48:19;;;;;;;3.03;0.68;;;;;;;;;;4973882;28;20062;-65
2022/08/05 09:50:49;;;;;;;2.10;0.90;;;;;;;;;;4973555;28;20057;-64
2022/08/05 09:53:16;;;;;;;2.75;0.73;;;;;;;;;;4986006;28;20051;-63
2022/08/05 09:55:43;;;;;;;0.95;0.52;;;;;;;;;;4977896;28;20065;-68
2022/08/05 09:58:12;;;;;;;0.60;0.60;;;;;;;;;;4974774;28;20082;-65
2022/08/05 10:00:38;;;;;;;1.42;0.68;;;;;;;;;;4967875;28;20063;-65
2022/08/05 10:03:09;;;;;;;3.03;0.68;;;;;;;;;;4986513;28;20050;-66
2022/08/05 10:05:41;;;;;;;1.77;0.50;;;;;;;;;;4955636;28;20071;-64
2022/08/05 10:08:07;;;;;;;1.42;0.57;;;;;;;;;;4972631;28;20050;-66
2022/08/05 10:10:36;;;;;;;2.88;0.70;;;;;;;;;;4975610;28;20050;-64
2022/08/05 10:13:06;;;;;;;4.47;0.50;;;;;;;;;;4960623;28;20061;-66
2022/08/05 10:15:38;;;;;;;1.42;0.50;;;;;;;;;;4973817;28;20066;-66
2022/08/05 10:18:11;;;;;;;2.10;0.60;;;;;;;;;;4970438;28;20129;-65
2022/08/05 10:20:40;;;;;;;1.00;0.60;;;;;;;;;;4969206;28;20046;-64
2022/08/05 10:23:07;;;;;;;2.10;0.70;;;;;;;;;;4968307;28;20159;-65
2022/08/05 10:25:34;;;;;;;1.10;0.40;;;;;;;;;;4990258;28;20054;-64
2022/08/05 10:28:03;;;;;;;0.93;0.50;;;;;;;;;;4978579;28;20051;-59
2022/08/05 10:30:30;;;;;;;0.70;0.57;;;;;;;;;;4970291;28;20329;-58
2022/08/05 10:33:02;;;;;;;0.45;0.45;;;;;;;;;;4982413;28;20105;-64
2022/08/05 10:35:48;;;;;;;2.75;0.70;;;;;;;;;;4962145;28;20054;-66
2022/08/05 10:38:15;;;;;;;1.23;0.60;;;;;;;;;;4973908;28;20402;-65
2022/08/05 10:40:45;;;;;;;0.75;0.50;;;;;;;;;;4984108;28;20050;-64
2022/08/05 10:43:17;;;;;;;1.60;0.50;;;;;;;;;;4972351;28;20059;-66
2022/08/05 10:45:55;;;;;;;1.45;0.70;;;;;;;;;;4966458;28;20065;-66
2022/08/05 10:48:34;;;;;;;2.40;0.63;;;;;;;;;;4975202;28;20061;-64
2022/08/05 10:51:02;;;;;;;0.85;0.50;;;;;;;;;;4968869;28;20050;-61
2022/08/05 10:53:39;;;;;;;1.45;0.50;;;;;;;;;;4974408;28;20050;-62
2022/08/05 10:56:07;;;;;;;1.45;0.60;;;;;;;;;;4973313;28;20057;-59
2022/08/05 10:58:34;;;;;;;2.40;0.50;;;;;;;;;;4971997;28;20046;-63
2022/08/05 11:01:04;;;;;;;4.50;0.70;;;;;;;;;;4989823;28;20053;-63
2022/08/05 11:03:30;;;;;;;1.50;0.63;;;;;;;;;;4982729;28;20145;-61
2022/08/05 11:06:06;;;;;;;1.45;0.45;;;;;;;;;;4989159;28;20047;-63
2022/08/05 11:08:33;;;;;;;1.75;0.63;;;;;;;;;;4968087;28;20125;-65
2022/08/05 11:11:15;;;;;;;0.93;0.65;;;;;;;;;;4972603;28;20058;-65
2022/08/05 11:14:09;;;;;;;1.42;0.50;;;;;;;;;;4982565;28;20054;-65
2022/08/05 11:16:36;;;;;;;1.40;0.60;;;;;;;;;;4939183;28;20141;-61
2022/08/05 11:19:22;;;;;;;2.33;0.45;;;;;;;;;;4984833;28;20112;-59
2022/08/05 11:21:50;;;;;;;4.10;0.55;;;;;;;;;;4976562;28;20050;-61
2022/08/05 11:24:22;;;;;;;3.35;0.80;;;;;;;;;;4985329;28;20047;-67
2022/08/05 11:26:50;;;;;;;1.92;0.68;;;;;;;;;;4969277;28;20500;-66
2022/08/05 11:29:36;;;;;;;0.63;0.50;;;;;;;;;;4971177;28;20058;-60
2022/08/05 11:32:22;;;;;;;4.57;0.57;;;;;;;;;;4972308;28;20143;-66
2022/08/05 11:35:04;;;;;;;2.35;0.60;;;;;;;;;;4982261;28;20046;-64
2022/08/05 11:37:49;;;;;;;1.65;0.80;;;;;;;;;;4973176;28;20050;-67
2022/08/05 11:40:18;;;;;;;0.65;0.40;;;;;;;;;;4966403;28;20200;-67
2022/08/05 11:42:46;;;;;;;1.40;0.50;;;;;;;;;;4985080;28;20064;-66
2022/08/05 11:45:19;;;;;;;1.33;0.80;;;;;;;;;;4977148;28;20144;-64
2022/08/05 11:47:47;;;;;;;1.30;0.57;;;;;;;;;;4978991;28;20309;-61
2022/08/05 11:50:13;;;;;;;2.78;0.80;;;;;;;;;;4968789;28;20058;-66
2022/08/05 11:52:41;;;;;;;0.47;0.47;;;;;;;;;;4973697;28;20058;-66
2022/08/05 11:55:24;;;;;;;0.60;0.60;;;;;;;;;;4970992;28;20054;-66
2022/08/05 11:57:51;;;;;;;1.20;0.65;;;;;;;;;;4974261;28;20078;-67
2022/08/05 12:00:27;;;;;;;0.88;0.63;;;;;;;;;;4967706;28;20046;-67
2022/08/05 12:02:54;;;;;;;1.40;0.50;;;;;;;;;;4987493;28;20133;-66
2022/08/05 12:05:26;;;;;;;3.85;0.88;;;;;;;;;;4969902;28;20059;-66
2022/08/05 12:07:52;;;;;;;2.30;0.60;;;;;;;;;;4970982;28;20046;-66
2022/08/05 12:10:20;;;;;;;0.90;0.52;;;;;;;;;;4974247;28;20113;-66
2022/08/05 12:12:48;;;;;;;2.22;0.55;;;;;;;;;;4968077;28;20128;-64
2022/08/05 12:15:27;;;;;;;2.30;0.57;;;;;;;;;;4973947;28;20050;-63
2022/08/05 12:17:54;;;;;;;0.95;0.50;;;;;;;;;;4972150;28;20059;-60
2022/08/05 12:20:27;;;;;;;0.52;0.30;;;;;;;;;;4974107;28;20050;-60
2022/08/05 12:23:07;;;;;;;0.60;0.50;;;;;;;;;;4967454;28;20077;-64
2022/08/05 12:25:48;;;;;;;0.90;0.50;;;;;;;;;;4973173;28;20050;-59
2022/08/05 12:28:29;;;;;;;0.93;0.50;;;;;;;;;;4965203;28;20062;-64
2022/08/05 12:30:56;;;;;;;1.20;0.55;;;;;;;;;;4974000;28;20105;-60
2022/08/05 12:33:23;;;;;;;3.58;0.57;;;;;;;;;;4969145;28;20168;-60
2022/08/05 12:35:52;;;;;;;4.85;0.80;;;;;;;;;;4971145;28;20050;-64
2022/08/05 12:38:18;;;;;;;1.85;0.43;;;;;;;;;;4970513;28;20112;-61
2022/08/05 12:40:45;;;;;;;1.55;0.50;;;;;;;;;;4966711;28;21553;-60
2022/08/05 15:01:46;;;;;;;4.05;0.80;;;;;;;;;;5000567;23;20071;-61
2022/08/05 15:04:13;;;;;;;2.03;0.80;;;;;;;;;;5003920;28;20062;-63
2022/08/05 15:06:39;;;;;;;3.20;0.70;;;;;;;;;;5004660;28;20128;-59
2022/08/05 15:09:06;;;;;;;2.55;0.70;;;;;;;;;;4995205;28;20053;-62
2022/08/05 15:11:34;;;;;;;0.50;0.50;;;;;;;;;;5004504;28;20107;-63
2022/08/05 15:14:03;;;;;;;1.13;0.52;;;;;;;;;;5009167;28;20059;-61
2022/08/05 15:16:29;;;;;;;0.60;0.60;;;;;;;;;;4995095;28;20049;-63
2022/08/05 15:18:57;;;;;;;2.00;0.82;;;;;;;;;;5023566;28;20060;-63
2022/08/05 15:21:24;;;;;;;;;;;;;;;;;;5004869;28;20077;-63
2022/08/05 15:23:51;;;;;;;2.72;0.73;;;;;;;;;;5004749;28;19932;-64
2022/08/05 15:26:17;;;;;;;1.48;0.60;;;;;;;;;;5009004;28;20057;-64
2022/08/05 15:28:47;;;;;;;2.25;0.60;;;;;;;;;;5001109;28;20145;-63
2022/08/05 15:31:13;;;;;;;0.98;0.50;;;;;;;;;;5008197;28;20061;-62
2022/08/05 15:33:42;;;;;;;2.47;0.65;;;;;;;;;;4998107;28;20057;-61
2022/08/05 15:36:10;;;;;;;1.80;0.57;;;;;;;;;;5009659;28;20057;-61
2022/08/05 15:38:37;;;;;;;1.02;0.60;;;;;;;;;;5018507;28;20088;-63
2022/08/05 15:41:06;;;;;;;2.90;0.70;;;;;;;;;;5021275;28;20056;-63
2022/08/05 15:43:34;;;;;;;3.90;0.70;;;;;;;;;;5009672;28;20057;-63
2022/08/05 15:46:01;;;;;;;5.10;0.70;;;;;;;;;;5002293;28;20058;-63
2022/08/05 15:48:29;;;;;;;4.78;0.65;;;;;;;;;;5008696;28;20057;-62
2022/08/05 15:51:00;;;;;;;1.13;0.47;;;;;;;;;;5000674;28;20053;-64
2022/08/05 15:53:29;;;;;;;2.13;0.65;;;;;;;;;;5010603;28;20060;-64
2022/08/05 15:55:56;;;;;;;1.27;0.60;;;;;;;;;;5014100;28;20053;-63
2022/08/05 15:58:22;;;;;;;1.40;0.70;;;;;;;;;;5023778;28;20063;-64
2022/08/05 16:00:52;;;;;;;3.15;0.52;;;;;;;;;;5000176;28;20148;-63
2022/08/05 16:03:18;;;;;;;3.90;0.80;;;;;;;;;;4991899;28;20057;-64
2022/08/05 16:05:45;;;;;;;1.13;0.60;;;;;;;;;;4991945;28;20108;-64
2022/08/05 16:08:12;;;;;;;1.13;0.50;;;;;;;;;;4985499;28;20058;-64
2022/08/05 16:10:40;;;;;;;2.67;0.70;;;;;;;;;;5005001;28;20045;-62
2022/08/05 16:13:06;;;;;;;2.60;0.80;;;;;;;;;;4982547;28;20050;-63
2022/08/05 16:15:33;;;;;;;4.95;0.75;;;;;;;;;;4991330;28;20045;-62
2022/08/05 16:18:00;;;;;;;3.75;0.80;;;;;;;;;;4985915;28;20046;-64
2022/08/05 16:20:26;;;;;;;5.07;0.70;;;;;;;;;;5006621;28;20070;-63
2022/08/05 16:22:53;;;;;;;1.65;0.60;;;;;;;;;;4988824;28;20161;-63
2022/08/05 16:25:21;;;;;;;1.40;0.50;;;;;;;;;;4987623;28;20078;-62
2022/08/05 16:27:49;;;;;;;2.13;0.60;;;;;;;;;;4987697;28;20049;-62
2022/08/05 16:30:18;;;;;;;0.77;0.52;;;;;;;;;;4984724;28;20042;-59
2022/08/05 16:32:44;;;;;;;1.77;0.60;;;;;;;;;;4991393;28;20046;-58
2022/08/05 16:35:11;;;;;;;0.77;0.50;;;;;;;;;;4987199;28;21240;-62
2022/08/05 16:37:39;;;;;;;1.35;0.60;;;;;;;;;;4992617;28;20048;-60
2022/08/05 16:40:06;;;;;;;2.95;1.08;;;;;;;;;;4984118;28;20132;-60
2022/08/05 16:42:33;;;;;;;1.70;0.80;;;;;;;;;;5007086;28;20058;-61
2022/08/05 16:45:02;;;;;;;1.02;0.50;;;;;;;;;;4985606;28;20058;-61
2022/08/05 16:47:29;;;;;;;3.13;0.75;;;;;;;;;;4992688;28;20061;-61
2022/08/05 16:49:55;;;;;;;2.03;0.70;;;;;;;;;;4986227;28;20053;-63
2022/08/05 16:52:22;;;;;;;1.40;0.60;;;;;;;;;;4992322;28;20054;-62
2022/08/05 16:54:49;;;;;;;1.45;0.77;;;;;;;;;;5003051;28;20042;-63
2022/08/05 16:57:15;;;;;;;4.22;0.82;;;;;;;;;;4991642;28;20054;-63
2022/08/05 16:59:42;;;;;;;1.05;0.60;;;;;;;;;;4985283;28;20049;-61
2022/08/05 17:02:10;;;;;;;1.88;0.60;;;;;;;;;;4991278;28;20057;-63
2022/08/05 17:04:36;;;;;;;;;;;;;;;;;;4991811;28;20061;-64
2022/08/05 17:07:06;;;;;;;2.55;0.60;;;;;;;;;;5004739;28;19925;-62
2022/08/05 17:09:32;;;;;;;3.22;0.75;;;;;;;;;;4999405;28;20045;-63
2022/08/05 17:12:02;;;;;;;2.17;0.80;;;;;;;;;;4995907;28;20164;-59